sensor_id;sensor_type;location;lat;lon;timestamp;pressure;altitude;pressure_sealevel;temperature;humidity
72157;BME280;60035;52.122;5.406;2023-03-18T00:00:09;100930.34;;;11.82;81.72
72157;BME280;60035;52.122;5.406;2023-03-18T00:02:37;100934.16;;;11.71;81.57
72157;BME280;60035;52.122;5.406;2023-03-18T00:05:06;100942.22;;;11.60;82.37
72157;BME280;60035;52.122;5.406;2023-03-18T00:07:34;100946.75;;;11.52;82.76
72157;BME280;60035;52.122;5.406;2023-03-18T00:10:02;100950.19;;;11.50;82.89
72157;BME280;60035;52.122;5.406;2023-03-18T00:12:29;100950.38;;;11.46;83.07
72157;BME280;60035;52.122;5.406;2023-03-18T00:14:56;100952.22;;;11.41;83.49
72157;BME280;60035;52.122;5.406;2023-03-18T00:17:23;100957.47;;;11.36;83.86
72157;BME280;60035;52.122;5.406;2023-03-18T00:19:49;100954.31;;;11.28;84.31
72157;BME280;60035;52.122;5.406;2023-03-18T00:22:16;100947.56;;;11.25;84.74
72157;BME280;60035;52.122;5.406;2023-03-18T00:24:43;100964.72;;;11.23;84.45
72157;BME280;60035;52.122;5.406;2023-03-18T00:27:09;100966.59;;;11.18;84.98
72157;BME280;60035;52.122;5.406;2023-03-18T00:29:36;100966.66;;;11.15;85.27
72157;BME280;60035;52.122;5.406;2023-03-18T00:32:03;100958.19;;;11.13;85.31
72157;BME280;60035;52.122;5.406;2023-03-18T00:34:29;100960.88;;;11.08;85.44
72157;BME280;60035;52.122;5.406;2023-03-18T00:36:56;100962.75;;;11.03;85.56
72157;BME280;60035;52.122;5.406;2023-03-18T00:39:23;100965.41;;;11.00;85.53
72157;BME280;60035;52.122;5.406;2023-03-18T00:41:55;100966.50;;;10.91;85.69
72157;BME280;60035;52.122;5.406;2023-03-18T00:44:23;100975.25;;;10.84;86.38
72157;BME280;60035;52.122;5.406;2023-03-18T00:46:51;100971.94;;;10.80;86.62
72157;BME280;60035;52.122;5.406;2023-03-18T00:49:18;100975.41;;;10.78;86.77
72157;BME280;60035;52.122;5.406;2023-03-18T00:51:45;100962.66;;;10.76;86.84
72157;BME280;60035;52.122;5.406;2023-03-18T00:54:12;100960.94;;;10.77;87.51
72157;BME280;60035;52.122;5.406;2023-03-18T00:56:43;100960.16;;;10.75;87.70
72157;BME280;60035;52.122;5.406;2023-03-18T00:59:10;100963.53;;;10.75;87.85
72157;BME280;60035;52.122;5.406;2023-03-18T01:01:37;100962.66;;;10.76;87.76
72157;BME280;60035;52.122;5.406;2023-03-18T01:04:05;100960.97;;;10.75;87.69
72157;BME280;60035;52.122;5.406;2023-03-18T01:06:34;100960.19;;;10.73;87.59
72157;BME280;60035;52.122;5.406;2023-03-18T01:09:02;100960.25;;;10.72;88.22
72157;BME280;60035;52.122;5.406;2023-03-18T01:11:30;100955.94;;;10.72;88.63
72157;BME280;60035;52.122;5.406;2023-03-18T01:13:58;100959.31;;;10.74;88.96
72157;BME280;60035;52.122;5.406;2023-03-18T01:16:26;100956.78;;;10.73;88.94
72157;BME280;60035;52.122;5.406;2023-03-18T01:18:53;100959.31;;;10.74;88.95
72157;BME280;60035;52.122;5.406;2023-03-18T01:21:20;100956.78;;;10.73;89.18
72157;BME280;60035;52.122;5.406;2023-03-18T01:23:47;100964.50;;;10.71;89.61
72157;BME280;60035;52.122;5.406;2023-03-18T01:26:14;100972.25;;;10.70;89.54
72157;BME280;60035;52.122;5.406;2023-03-18T01:28:40;100965.47;;;10.67;89.47
72157;BME280;60035;52.122;5.406;2023-03-18T01:31:07;100973.25;;;10.64;90.00
72157;BME280;60035;52.122;5.406;2023-03-18T01:33:34;100965.66;;;10.61;90.16
72157;BME280;60035;52.122;5.406;2023-03-18T01:36:02;100971.69;;;10.58;90.42
72157;BME280;60035;52.122;5.406;2023-03-18T01:38:30;100964.06;;;10.57;90.99
72157;BME280;60035;52.122;5.406;2023-03-18T01:40:58;100970.81;;;10.59;90.87
72157;BME280;60035;52.122;5.406;2023-03-18T01:43:28;100964.00;;;10.60;90.89
72157;BME280;60035;52.122;5.406;2023-03-18T01:45:58;100962.31;;;10.59;91.23
72157;BME280;60035;52.122;5.406;2023-03-18T01:48:27;100970.88;;;10.58;91.59
72157;BME280;60035;52.122;5.406;2023-03-18T01:50:58;100972.66;;;10.54;91.79
72157;BME280;60035;52.122;5.406;2023-03-18T01:53:30;100960.75;;;10.53;91.77
72157;BME280;60035;52.122;5.406;2023-03-18T01:55:58;100963.31;;;10.53;91.84
72157;BME280;60035;52.122;5.406;2023-03-18T01:58:31;100960.78;;;10.52;92.33
72157;BME280;60035;52.122;5.406;2023-03-18T02:01:06;100965.94;;;10.50;93.35
72157;BME280;60035;52.122;5.406;2023-03-18T02:03:34;100966.81;;;10.49;93.47
72157;BME280;60035;52.122;5.406;2023-03-18T02:06:02;100968.59;;;10.47;93.72
72157;BME280;60035;52.122;5.406;2023-03-18T02:08:29;100966.03;;;10.47;93.66
72157;BME280;60035;52.122;5.406;2023-03-18T02:10:55;100968.66;;;10.45;93.83
72157;BME280;60035;52.122;5.406;2023-03-18T02:13:22;100967.78;;;10.45;93.70
72157;BME280;60035;52.122;5.406;2023-03-18T02:18:22;100973.03;;;10.40;94.10
72157;BME280;60035;52.122;5.406;2023-03-18T02:21:04;100988.44;;;10.39;94.28
72157;BME280;60035;52.122;5.406;2023-03-18T02:26:18;100985.84;;;10.40;94.67
72157;BME280;60035;52.122;5.406;2023-03-18T02:28:48;100984.97;;;10.41;94.51
72157;BME280;60035;52.122;5.406;2023-03-18T02:31:16;100982.38;;;10.43;94.79
72157;BME280;60035;52.122;5.406;2023-03-18T02:33:45;100971.25;;;10.42;94.95
72157;BME280;60035;52.122;5.406;2023-03-18T02:36:23;100980.59;;;10.45;95.18
72157;BME280;60035;52.122;5.406;2023-03-18T02:38:51;100977.25;;;10.43;95.44
72157;BME280;60035;52.122;5.406;2023-03-18T02:41:20;100986.63;;;10.42;95.78
72157;BME280;60035;52.122;5.406;2023-03-18T02:43:49;100992.72;;;10.38;96.21
72157;BME280;60035;52.122;5.406;2023-03-18T02:46:34;100985.94;;;10.36;96.83
72157;BME280;60035;52.122;5.406;2023-03-18T02:49:05;100996.16;;;10.37;96.91
72157;BME280;60035;52.122;5.406;2023-03-18T02:51:35;100987.59;;;10.38;97.02
72157;BME280;60035;52.122;5.406;2023-03-18T02:54:09;100989.22;;;10.41;97.17
72157;BME280;60035;52.122;5.406;2023-03-18T02:56:37;100992.66;;;10.41;96.91
72157;BME280;60035;52.122;5.406;2023-03-18T02:59:04;100992.66;;;10.41;96.84
72157;BME280;60035;52.122;5.406;2023-03-18T03:01:31;100991.78;;;10.41;96.80
72157;BME280;60035;52.122;5.406;2023-03-18T03:04:00;100989.19;;;10.42;96.94
72157;BME280;60035;52.122;5.406;2023-03-18T03:06:27;100991.75;;;10.42;96.75
72157;BME280;60035;52.122;5.406;2023-03-18T03:08:54;100988.34;;;10.42;97.08
72157;BME280;60035;52.122;5.406;2023-03-18T03:11:20;100992.66;;;10.41;97.12
72157;BME280;60035;52.122;5.406;2023-03-18T03:13:48;100995.28;;;10.38;97.61
72157;BME280;60035;52.122;5.406;2023-03-18T03:16:16;100998.66;;;10.40;98.04
72157;BME280;60035;52.122;5.406;2023-03-18T03:18:43;101000.34;;;10.40;98.21
72157;BME280;60035;52.122;5.406;2023-03-18T03:21:12;100996.91;;;10.41;97.77
72157;BME280;60035;52.122;5.406;2023-03-18T03:23:39;101001.25;;;10.39;97.68
72157;BME280;60035;52.122;5.406;2023-03-18T03:26:06;101008.94;;;10.39;98.21
72157;BME280;60035;52.122;5.406;2023-03-18T03:28:33;101005.56;;;10.37;98.26
72157;BME280;60035;52.122;5.406;2023-03-18T03:31:00;101009.00;;;10.34;98.76
72157;BME280;60035;52.122;5.406;2023-03-18T03:33:27;101008.22;;;10.32;98.89
72157;BME280;60035;52.122;5.406;2023-03-18T03:35:53;101015.91;;;10.32;99.36
72157;BME280;60035;52.122;5.406;2023-03-18T03:38:20;101008.22;;;10.32;99.51
72157;BME280;60035;52.122;5.406;2023-03-18T03:40:48;101014.97;;;10.34;99.34
72157;BME280;60035;52.122;5.406;2023-03-18T03:43:14;101009.84;;;10.36;99.28
72157;BME280;60035;52.122;5.406;2023-03-18T03:45:42;101019.19;;;10.37;99.33
72157;BME280;60035;52.122;5.406;2023-03-18T03:48:09;101016.63;;;10.37;99.05
72157;BME280;60035;52.122;5.406;2023-03-18T03:50:35;101026.84;;;10.39;99.06
72157;BME280;60035;52.122;5.406;2023-03-18T03:53:03;101020.88;;;10.38;99.08
72157;BME280;60035;52.122;5.406;2023-03-18T03:55:30;101020.81;;;10.40;99.25
72157;BME280;60035;52.122;5.406;2023-03-18T03:57:56;101015.69;;;10.40;99.26
72157;BME280;60035;52.122;5.406;2023-03-18T04:00:23;101021.72;;;10.39;99.49
72157;BME280;60035;52.122;5.406;2023-03-18T04:02:51;101028.56;;;10.38;99.46
72157;BME280;60035;52.122;5.406;2023-03-18T04:05:20;101023.44;;;10.38;99.66
72157;BME280;60035;52.122;5.406;2023-03-18T04:07:47;101030.22;;;10.39;99.59
72157;BME280;60035;52.122;5.406;2023-03-18T04:10:15;101033.63;;;10.40;99.61
72157;BME280;60035;52.122;5.406;2023-03-18T04:12:43;101031.06;;;10.40;99.58
72157;BME280;60035;52.122;5.406;2023-03-18T04:15:13;101025.13;;;10.39;99.69
72157;BME280;60035;52.122;5.406;2023-03-18T04:17:40;101029.38;;;10.40;99.69
72157;BME280;60035;52.122;5.406;2023-03-18T04:20:06;101031.91;;;10.40;99.92
72157;BME280;60035;52.122;5.406;2023-03-18T04:22:33;101031.06;;;10.41;100.00
72157;BME280;60035;52.122;5.406;2023-03-18T04:25:01;101036.16;;;10.41;100.00
72157;BME280;60035;52.122;5.406;2023-03-18T04:27:28;101033.59;;;10.41;100.00
72157;BME280;60035;52.122;5.406;2023-03-18T04:29:55;101037.91;;;10.39;100.00
72157;BME280;60035;52.122;5.406;2023-03-18T04:32:21;101031.97;;;10.39;100.00
72157;BME280;60035;52.122;5.406;2023-03-18T04:34:48;101033.72;;;10.37;100.00
72157;BME280;60035;52.122;5.406;2023-03-18T04:37:15;101032.03;;;10.36;100.00
72157;BME280;60035;52.122;5.406;2023-03-18T04:39:47;101038.03;;;10.33;100.00
72157;BME280;60035;52.122;5.406;2023-03-18T04:42:15;101034.69;;;10.31;100.00
72157;BME280;60035;52.122;5.406;2023-03-18T04:44:43;101038.13;;;10.30;100.00
72157;BME280;60035;52.122;5.406;2023-03-18T04:47:10;101037.28;;;10.29;100.00
72157;BME280;60035;52.122;5.406;2023-03-18T04:49:38;101030.47;;;10.28;100.00
72157;BME280;60035;52.122;5.406;2023-03-18T04:52:07;101025.38;;;10.28;100.00
72157;BME280;60035;52.122;5.406;2023-03-18T04:54:34;101041.53;;;10.29;100.00
72157;BME280;60035;52.122;5.406;2023-03-18T04:57:02;101039.88;;;10.28;100.00
72157;BME280;60035;52.122;5.406;2023-03-18T04:59:31;101035.66;;;10.27;100.00
72157;BME280;60035;52.122;5.406;2023-03-18T05:01:57;101039.03;;;10.27;100.00
72157;BME280;60035;52.122;5.406;2023-03-18T05:04:25;101043.38;;;10.25;100.00
72157;BME280;60035;52.122;5.406;2023-03-18T05:06:51;101044.25;;;10.24;100.00
72157;BME280;60035;52.122;5.406;2023-03-18T05:09:18;101048.50;;;10.24;100.00
72157;BME280;60035;52.122;5.406;2023-03-18T05:11:44;101046.84;;;10.23;100.00
72157;BME280;60035;52.122;5.406;2023-03-18T05:14:12;101052.84;;;10.22;100.00
72157;BME280;60035;52.122;5.406;2023-03-18T05:16:39;101052.84;;;10.22;100.00
72157;BME280;60035;52.122;5.406;2023-03-18T05:19:05;101061.34;;;10.22;100.00
72157;BME280;60035;52.122;5.406;2023-03-18T05:21:32;101061.38;;;10.21;100.00
72157;BME280;60035;52.122;5.406;2023-03-18T05:23:58;101069.97;;;10.18;100.00
72157;BME280;60035;52.122;5.406;2023-03-18T05:26:25;101066.59;;;10.17;100.00
72157;BME280;60035;52.122;5.406;2023-03-18T05:28:51;101070.00;;;10.16;100.00
72157;BME280;60035;52.122;5.406;2023-03-18T05:31:19;101070.09;;;10.13;100.00
72157;BME280;60035;52.122;5.406;2023-03-18T05:33:46;101076.00;;;10.15;100.00
72157;BME280;60035;52.122;5.406;2023-03-18T05:36:13;101075.97;;;10.17;100.00
72157;BME280;60035;52.122;5.406;2023-03-18T05:38:39;101079.34;;;10.19;100.00
72157;BME280;60035;52.122;5.406;2023-03-18T05:41:06;101071.66;;;10.19;100.00
72157;BME280;60035;52.122;5.406;2023-03-18T05:43:33;101071.63;;;10.21;100.00
72157;BME280;60035;52.122;5.406;2023-03-18T05:46:00;101080.13;;;10.21;100.00
72157;BME280;60035;52.122;5.406;2023-03-18T05:48:26;101084.38;;;10.22;100.00
72157;BME280;60035;52.122;5.406;2023-03-18T05:50:53;101084.38;;;10.22;100.00
72157;BME280;60035;52.122;5.406;2023-03-18T05:53:19;101086.09;;;10.22;100.00
72157;BME280;60035;52.122;5.406;2023-03-18T05:55:46;101086.94;;;10.22;100.00
72157;BME280;60035;52.122;5.406;2023-03-18T05:58:14;101086.06;;;10.23;100.00
72157;BME280;60035;52.122;5.406;2023-03-18T06:00:40;101085.19;;;10.24;100.00
72157;BME280;60035;52.122;5.406;2023-03-18T06:03:07;101089.44;;;10.25;100.00
72157;BME280;60035;52.122;5.406;2023-03-18T06:05:34;101090.22;;;10.27;100.00
72157;BME280;60035;52.122;5.406;2023-03-18T06:08:01;101097.06;;;10.27;100.00
72157;BME280;60035;52.122;5.406;2023-03-18T06:10:28;101097.91;;;10.27;100.00
72157;BME280;60035;52.122;5.406;2023-03-18T06:12:54;101097.03;;;10.28;100.00
72157;BME280;60035;52.122;5.406;2023-03-18T06:15:21;101097.84;;;10.29;100.00
72157;BME280;60035;52.122;5.406;2023-03-18T06:17:48;101101.22;;;10.31;100.00
72157;BME280;60035;52.122;5.406;2023-03-18T06:20:14;101099.53;;;10.30;100.00
72157;BME280;60035;52.122;5.406;2023-03-18T06:22:41;101096.13;;;10.31;100.00
72157;BME280;60035;52.122;5.406;2023-03-18T06:25:09;101100.38;;;10.32;100.00
72157;BME280;60035;52.122;5.406;2023-03-18T06:27:36;101104.66;;;10.30;100.00
72157;BME280;60035;52.122;5.406;2023-03-18T06:30:03;101107.22;;;10.30;100.00
72157;BME280;60035;52.122;5.406;2023-03-18T06:32:31;101124.28;;;10.31;100.00
72157;BME280;60035;52.122;5.406;2023-03-18T06:34:59;101126.78;;;10.32;100.00
72157;BME280;60035;52.122;5.406;2023-03-18T06:37:26;101129.34;;;10.32;100.00
72157;BME280;60035;52.122;5.406;2023-03-18T06:39:53;101130.16;;;10.33;100.00
72157;BME280;60035;52.122;5.406;2023-03-18T06:42:19;101138.66;;;10.37;100.00
72157;BME280;60035;52.122;5.406;2023-03-18T06:44:46;101132.72;;;10.36;100.00
72157;BME280;60035;52.122;5.406;2023-03-18T06:47:17;101136.91;;;10.39;100.00
72157;BME280;60035;52.122;5.406;2023-03-18T06:49:44;101136.00;;;10.41;100.00
72157;BME280;60035;52.122;5.406;2023-03-18T06:52:11;101134.19;;;10.45;100.00
72157;BME280;60035;52.122;5.406;2023-03-18T06:54:39;101131.59;;;10.46;100.00
72157;BME280;60035;52.122;5.406;2023-03-18T06:57:06;101134.13;;;10.48;100.00
72157;BME280;60035;52.122;5.406;2023-03-18T06:59:34;101136.56;;;10.53;100.00
72157;BME280;60035;52.122;5.406;2023-03-18T07:02:01;101136.53;;;10.54;100.00
72157;BME280;60035;52.122;5.406;2023-03-18T07:04:28;101147.63;;;10.55;100.00
72157;BME280;60035;52.122;5.406;2023-03-18T07:06:54;101148.38;;;10.58;100.00
72157;BME280;60035;52.122;5.406;2023-03-18T07:09:21;101150.00;;;10.62;100.00
72157;BME280;60035;52.122;5.406;2023-03-18T07:11:49;101149.91;;;10.65;100.00
72157;BME280;60035;52.122;5.406;2023-03-18T07:14:15;101157.56;;;10.67;100.00
72157;BME280;60035;52.122;5.406;2023-03-18T07:16:42;101156.66;;;10.70;100.00
72157;BME280;60035;52.122;5.406;2023-03-18T07:19:08;101159.19;;;10.70;100.00
72157;BME280;60035;52.122;5.406;2023-03-18T07:21:35;101168.56;;;10.71;100.00
72157;BME280;60035;52.122;5.406;2023-03-18T07:24:02;101159.25;;;10.68;100.00
72157;BME280;60035;52.122;5.406;2023-03-18T07:26:29;101167.00;;;10.65;100.00
72157;BME280;60035;52.122;5.406;2023-03-18T07:28:56;101167.88;;;10.64;100.00
72157;BME280;60035;52.122;5.406;2023-03-18T07:31:22;101173.06;;;10.62;100.00
72157;BME280;60035;52.122;5.406;2023-03-18T07:33:50;101170.41;;;10.65;100.00
72157;BME280;60035;52.122;5.406;2023-03-18T07:36:16;101180.50;;;10.72;100.00
72157;BME280;60035;52.122;5.406;2023-03-18T07:38:43;101180.34;;;10.78;100.00
72157;BME280;60035;52.122;5.406;2023-03-18T07:41:10;101186.09;;;10.86;100.00
72157;BME280;60035;52.122;5.406;2023-03-18T07:43:36;101181.59;;;10.96;100.00
72157;BME280;60035;52.122;5.406;2023-03-18T07:46:03;101185.66;;;11.05;100.00
72157;BME280;60035;52.122;5.406;2023-03-18T07:48:31;101192.28;;;11.12;100.00
72157;BME280;60035;52.122;5.406;2023-03-18T07:51:00;101191.22;;;11.21;100.00
72157;BME280;60035;52.122;5.406;2023-03-18T07:53:27;101193.59;;;11.27;100.00
72157;BME280;60035;52.122;5.406;2023-03-18T07:55:54;101191.72;;;11.33;100.00
72157;BME280;60035;52.122;5.406;2023-03-18T07:58:20;101192.44;;;11.39;100.00
72157;BME280;60035;52.122;5.406;2023-03-18T08:00:47;101193.16;;;11.44;100.00
72157;BME280;60035;52.122;5.406;2023-03-18T08:03:14;101194.78;;;11.46;100.00
72157;BME280;60035;52.122;5.406;2023-03-18T08:05:42;101190.28;;;11.55;100.00
72157;BME280;60035;52.122;5.406;2023-03-18T08:08:08;101195.16;;;11.64;100.00
72157;BME280;60035;52.122;5.406;2023-03-18T08:10:35;101194.06;;;11.73;100.00
72157;BME280;60035;52.122;5.406;2023-03-18T08:13:01;101184.38;;;11.82;100.00
72157;BME280;60035;52.122;5.406;2023-03-18T08:15:29;101186.72;;;11.90;100.00
72157;BME280;60035;52.122;5.406;2023-03-18T08:17:57;101184.75;;;12.00;100.00
72157;BME280;60035;52.122;5.406;2023-03-18T08:20:23;101178.53;;;12.07;100.00
72157;BME280;60035;52.122;5.406;2023-03-18T08:22:50;101189.41;;;12.15;100.00
72157;BME280;60035;52.122;5.406;2023-03-18T08:25:16;101190.81;;;12.26;100.00
72157;BME280;60035;52.122;5.406;2023-03-18T08:27:43;101185.34;;;12.37;100.00
72157;BME280;60035;52.122;5.406;2023-03-18T08:30:10;101188.53;;;12.43;100.00
72157;BME280;60035;52.122;5.406;2023-03-18T08:32:38;101179.03;;;12.47;100.00
72157;BME280;60035;52.122;5.406;2023-03-18T08:35:05;101180.47;;;12.56;100.00
72157;BME280;60035;52.122;5.406;2023-03-18T08:37:32;101179.41;;;12.61;100.00
72157;BME280;60035;52.122;5.406;2023-03-18T08:39:59;101172.41;;;12.66;100.00
72157;BME280;60035;52.122;5.406;2023-03-18T08:42:25;101178.38;;;12.67;100.00
72157;BME280;60035;52.122;5.406;2023-03-18T08:44:53;101174.81;;;12.71;99.75
72157;BME280;60035;52.122;5.406;2023-03-18T08:47:20;101180.69;;;12.75;99.50
72157;BME280;60035;52.122;5.406;2023-03-18T08:49:46;101182.44;;;12.74;98.94
72157;BME280;60035;52.122;5.406;2023-03-18T08:52:17;101174.03;;;12.69;98.58
72157;BME280;60035;52.122;5.406;2023-03-18T08:54:43;101176.44;;;12.74;98.56
72157;BME280;60035;52.122;5.406;2023-03-18T08:57:10;101187.53;;;12.76;98.47
72157;BME280;60035;52.122;5.406;2023-03-18T08:59:36;101188.22;;;12.81;98.70
72157;BME280;60035;52.122;5.406;2023-03-18T09:02:03;101187.16;;;12.87;98.45
72157;BME280;60035;52.122;5.406;2023-03-18T09:04:30;101183.50;;;12.94;98.17
72157;BME280;60035;52.122;5.406;2023-03-18T09:06:56;101183.00;;;13.08;98.12
72157;BME280;60035;52.122;5.406;2023-03-18T09:09:23;101180.94;;;13.19;97.56
72157;BME280;60035;52.122;5.406;2023-03-18T09:12:06;101189.59;;;13.16;96.26
72157;BME280;60035;52.122;5.406;2023-03-18T09:14:33;101191.16;;;12.95;96.08
72157;BME280;60035;52.122;5.406;2023-03-18T09:16:59;101194.72;;;12.91;96.28
72157;BME280;60035;52.122;5.406;2023-03-18T09:19:26;101187.28;;;12.83;96.41
72157;BME280;60035;52.122;5.406;2023-03-18T09:21:53;101193.41;;;12.79;97.04
72157;BME280;60035;52.122;5.406;2023-03-18T09:24:21;101200.81;;;12.89;97.17
72157;BME280;60035;52.122;5.406;2023-03-18T09:26:47;101200.84;;;12.87;97.12
72157;BME280;60035;52.122;5.406;2023-03-18T09:29:14;101200.69;;;12.92;97.14
72157;BME280;60035;52.122;5.406;2023-03-18T09:31:41;101203.38;;;12.89;96.93
72157;BME280;60035;52.122;5.406;2023-03-18T09:34:08;101213.78;;;12.84;97.05
72157;BME280;60035;52.122;5.406;2023-03-18T09:36:35;101219.69;;;12.88;97.42
72157;BME280;60035;52.122;5.406;2023-03-18T09:39:01;101218.31;;;13.03;97.44
72157;BME280;60035;52.122;5.406;2023-03-18T09:41:57;101224.97;;;13.08;97.08
72157;BME280;60035;52.122;5.406;2023-03-18T09:44:32;101208.59;;;13.11;96.76
72157;BME280;60035;52.122;5.406;2023-03-18T09:52:37;101229.19;;;13.36;96.19
72157;BME280;60035;52.122;5.406;2023-03-18T09:57:56;101224.19;;;13.57;95.30
72157;BME280;60035;52.122;5.406;2023-03-18T10:00:31;101227.19;;;13.70;94.59
72157;BME280;60035;52.122;5.406;2023-03-18T10:03:03;101225.97;;;13.78;93.56
72157;BME280;60035;52.122;5.406;2023-03-18T10:05:45;101233.16;;;13.94;92.96
72157;BME280;60035;52.122;5.406;2023-03-18T10:08:47;101222.28;;;14.09;91.95
72157;BME280;60035;52.122;5.406;2023-03-18T10:11:33;101228.03;;;14.16;91.55
72157;BME280;60035;52.122;5.406;2023-03-18T10:19:21;101226.66;;;14.52;89.16
72157;BME280;60035;52.122;5.406;2023-03-18T10:25:05;101233.84;;;14.65;87.42
72157;BME280;60035;52.122;5.406;2023-03-18T10:27:57;101238.38;;;14.59;87.03
72157;BME280;60035;52.122;5.406;2023-03-18T10:30:42;101232.47;;;14.57;86.31
72157;BME280;60035;52.122;5.406;2023-03-18T10:38:32;101226.66;;;14.94;85.80
72157;BME280;60035;52.122;5.406;2023-03-18T10:41:07;101233.84;;;15.08;84.65
72157;BME280;60035;52.122;5.406;2023-03-18T10:43:38;101230.78;;;15.19;82.54
72157;BME280;60035;52.122;5.406;2023-03-18T10:46:05;101231.44;;;15.24;82.67
72157;BME280;60035;52.122;5.406;2023-03-18T10:48:44;101221.69;;;15.31;81.67
72157;BME280;60035;52.122;5.406;2023-03-18T10:53:48;101217.75;;;15.22;82.36
72157;BME280;60035;52.122;5.406;2023-03-18T10:56:18;101220.00;;;15.30;82.77
72157;BME280;60035;52.122;5.406;2023-03-18T10:58:45;101220.59;;;15.56;81.71
72157;BME280;60035;52.122;5.406;2023-03-18T11:01:14;101212.56;;;15.82;80.28
72157;BME280;60035;52.122;5.406;2023-03-18T11:06:35;101212.75;;;16.16;78.43
72157;BME280;60035;52.122;5.406;2023-03-18T11:09:14;101211.69;;;16.20;77.66
72157;BME280;60035;52.122;5.406;2023-03-18T11:11:41;101216.84;;;16.20;77.79
72157;BME280;60035;52.122;5.406;2023-03-18T11:14:14;101217.09;;;16.15;76.60
72157;BME280;60035;52.122;5.406;2023-03-18T11:16:49;101203.47;;;16.12;76.26
72157;BME280;60035;52.122;5.406;2023-03-18T11:19:38;101218.56;;;16.02;76.56
72157;BME280;60035;52.122;5.406;2023-03-18T11:24:39;101219.00;;;15.93;76.98
72157;BME280;60035;52.122;5.406;2023-03-18T11:30:13;101223.16;;;15.95;77.41
72157;BME280;60035;52.122;5.406;2023-03-18T11:33:05;101216.00;;;16.02;76.75
72157;BME280;60035;52.122;5.406;2023-03-18T11:38:17;101222.31;;;15.95;76.46
72157;BME280;60035;52.122;5.406;2023-03-18T11:40:44;101231.69;;;15.97;76.51
72157;BME280;60035;52.122;5.406;2023-03-18T11:43:16;101220.03;;;15.89;76.32
72157;BME280;60035;52.122;5.406;2023-03-18T11:45:51;101220.31;;;15.82;77.04
72157;BME280;60035;52.122;5.406;2023-03-18T11:48:34;101220.16;;;15.86;76.96
72157;BME280;60035;52.122;5.406;2023-03-18T11:56:54;101217.75;;;15.62;77.24
72157;BME280;60035;52.122;5.406;2023-03-18T11:59:39;101215.81;;;15.67;77.66
72157;BME280;60035;52.122;5.406;2023-03-18T12:10:41;101209.41;;;15.76;76.25
72157;BME280;60035;52.122;5.406;2023-03-18T12:18:42;101197.47;;;16.11;78.42
72157;BME280;60035;52.122;5.406;2023-03-18T12:29:40;101204.63;;;16.24;74.75
72157;BME280;60035;52.122;5.406;2023-03-18T12:32:48;101212.66;;;16.18;74.78
72157;BME280;60035;52.122;5.406;2023-03-18T12:35:27;101211.06;;;16.15;74.41
72157;BME280;60035;52.122;5.406;2023-03-18T12:49:24;101215.38;;;15.76;75.56
72157;BME280;60035;52.122;5.406;2023-03-18T12:52:07;101215.72;;;15.69;74.92
72157;BME280;60035;52.122;5.406;2023-03-18T12:54:46;101210.78;;;15.64;75.05
72157;BME280;60035;52.122;5.406;2023-03-18T12:57:25;101221.31;;;15.59;75.24
72157;BME280;60035;52.122;5.406;2023-03-18T12:59:58;101221.44;;;15.56;75.53
72157;BME280;60035;52.122;5.406;2023-03-18T13:05:33;101223.09;;;15.38;74.52
72157;BME280;60035;52.122;5.406;2023-03-18T13:08:21;101223.09;;;15.38;74.14
72157;BME280;60035;52.122;5.406;2023-03-18T13:10:57;101219.53;;;15.41;74.76
72157;BME280;60035;52.122;5.406;2023-03-18T13:13:32;101219.78;;;15.35;74.66
72157;BME280;60035;52.122;5.406;2023-03-18T13:16:00;101215.69;;;15.30;75.38
72157;BME280;60035;52.122;5.406;2023-03-18T13:18:40;101215.00;;;15.27;76.77
72157;BME280;60035;52.122;5.406;2023-03-18T13:21:14;101211.78;;;15.22;78.75
72157;BME280;60035;52.122;5.406;2023-03-18T13:26:23;101213.53;;;15.01;81.69
72157;BME280;60035;52.122;5.406;2023-03-18T13:43:24;101221.81;;;15.28;90.54
72157;BME280;60035;52.122;5.406;2023-03-18T13:45:52;101218.56;;;15.43;90.34
72157;BME280;60035;52.122;5.406;2023-03-18T13:48:26;101215.59;;;15.53;90.47
72157;BME280;60035;52.122;5.406;2023-03-18T13:50:53;101217.81;;;15.60;89.70
72157;BME280;60035;52.122;5.406;2023-03-18T13:53:28;101210.22;;;15.57;90.33
72157;BME280;60035;52.122;5.406;2023-03-18T14:06:38;101209.31;;;15.58;88.86
72157;BME280;60035;52.122;5.406;2023-03-18T14:09:22;101195.91;;;15.50;88.88
72157;BME280;60035;52.122;5.406;2023-03-18T14:12:16;101195.28;;;15.45;88.48
72157;BME280;60035;52.122;5.406;2023-03-18T14:15:38;101195.50;;;15.40;87.39
72157;BME280;60035;52.122;5.406;2023-03-18T14:22:51;101188.38;;;15.45;86.41
72157;BME280;60035;52.122;5.406;2023-03-18T14:25:19;101187.75;;;15.40;86.01
72157;BME280;60035;52.122;5.406;2023-03-18T14:27:56;101187.88;;;15.37;85.83
72157;BME280;60035;52.122;5.406;2023-03-18T14:33:14;101189.88;;;15.30;84.97
72157;BME280;60035;52.122;5.406;2023-03-18T14:41:15;101181.72;;;15.40;82.92
72157;BME280;60035;52.122;5.406;2023-03-18T14:43:53;101174.44;;;15.49;82.43
72157;BME280;60035;52.122;5.406;2023-03-18T14:46:30;101168.06;;;15.57;81.63
72157;BME280;60035;52.122;5.406;2023-03-18T14:48:58;101163.78;;;15.57;80.02
72157;BME280;60035;52.122;5.406;2023-03-18T14:51:26;101157.69;;;15.58;79.55
72157;BME280;60035;52.122;5.406;2023-03-18T14:54:03;101154.78;;;15.85;79.42
72157;BME280;60035;52.122;5.406;2023-03-18T14:56:41;101151.34;;;16.04;78.61
72157;BME280;60035;52.122;5.406;2023-03-18T14:59:14;101150.72;;;15.98;77.22
72157;BME280;60035;52.122;5.406;2023-03-18T15:01:45;101147.44;;;15.95;77.30